createdAt,value
2022-10-25T00:00:42.319Z,95562.44
2022-10-25T00:03:13.401Z,95562.97
2022-10-25T00:05:42.415Z,95560.22
2022-10-25T00:08:10.975Z,95560.31
2022-10-25T00:10:39.392Z,95557.84
2022-10-25T00:13:07.738Z,95555.75
2022-10-25T00:15:35.784Z,95569.13
2022-10-25T00:18:03.781Z,95552.22
2022-10-25T00:20:33.130Z,95565.00
2022-10-25T00:23:01.592Z,95567.69
2022-10-25T00:25:29.531Z,95571.13
2022-10-25T00:27:57.563Z,95566.91
2022-10-25T00:30:25.541Z,95567.03
2022-10-25T00:32:54.611Z,95566.50
2022-10-25T00:35:22.998Z,95578.63
2022-10-25T00:37:52.749Z,95580.16
2022-10-25T00:40:20.863Z,95578.50
2022-10-25T00:42:49.054Z,95574.50
2022-10-25T00:45:23.678Z,95574.09
2022-10-25T00:47:56.563Z,95570.28
2022-10-25T00:50:46.449Z,95568.13
2022-10-25T00:53:20.261Z,95561.09
2022-10-25T00:55:53.388Z,95552.88
2022-10-25T00:58:25.473Z,95562.19
2022-10-25T01:00:53.649Z,95559.25
2022-10-25T01:03:25.367Z,95554.25
2022-10-25T01:05:53.925Z,95560.16
2022-10-25T01:08:23.990Z,95535.59
2022-10-25T01:10:52.148Z,95551.00
2022-10-25T01:13:20.263Z,95561.63
2022-10-25T01:16:02.062Z,95540.38
2022-10-25T01:18:43.480Z,95548.56
2022-10-25T01:21:37.391Z,95541.69
2022-10-25T01:24:40.841Z,95544.47
2022-10-25T01:27:23.666Z,95547.75
2022-10-25T01:30:08.147Z,95537.66
2022-10-25T01:32:59.323Z,95533.50
2022-10-25T01:35:30.918Z,95537.47
2022-10-25T01:38:12.098Z,95544.72
2022-10-25T01:40:49.374Z,95536.00
2022-10-25T01:43:30.941Z,95535.38
2022-10-25T01:46:06.852Z,95529.16
2022-10-25T01:48:41.230Z,95536.06
2022-10-25T01:51:12.379Z,95529.44
2022-10-25T01:53:47.926Z,95511.84
2022-10-25T01:56:24.140Z,95521.50
2022-10-25T01:59:17.778Z,95526.03
2022-10-25T02:02:00.657Z,95518.91
2022-10-25T02:04:41.100Z,95523.50
2022-10-25T02:07:12.535Z,95530.00
2022-10-25T02:09:52.039Z,95506.72
2022-10-25T02:12:26.611Z,95523.31
2022-10-25T02:15:05.576Z,95522.25
2022-10-25T02:17:37.750Z,95518.09
2022-10-25T02:20:09.659Z,95531.09
2022-10-25T02:22:40.149Z,95518.59
2022-10-25T02:25:10.866Z,95524.44
2022-10-25T02:27:41.131Z,95509.16
2022-10-25T02:30:10.827Z,95506.94
2022-10-25T02:32:38.835Z,95514.97
2022-10-25T02:35:14.979Z,95503.44
2022-10-25T02:37:43.011Z,95433.63
2022-10-25T02:40:11.929Z,95513.44
2022-10-25T02:42:39.902Z,95514.50
2022-10-25T02:45:09.168Z,95518.56
2022-10-25T02:47:37.361Z,95522.31
2022-10-25T02:50:05.844Z,95514.66
2022-10-25T02:52:35.108Z,95515.88
2022-10-25T02:55:03.084Z,95531.66
2022-10-25T02:57:34.521Z,95506.59
2022-10-25T03:00:02.602Z,95516.00
2022-10-25T03:02:30.664Z,95528.97
2022-10-25T03:04:58.559Z,95514.03
2022-10-25T03:07:26.483Z,95519.88
2022-10-25T03:09:55.850Z,95515.38
2022-10-25T03:12:23.777Z,95494.28
2022-10-25T03:14:51.674Z,95515.69
2022-10-25T03:17:19.775Z,95523.50
2022-10-25T03:19:47.796Z,95515.03
2022-10-25T03:22:15.749Z,95515.03
2022-10-25T03:24:43.697Z,95523.81
2022-10-25T03:27:12.954Z,95525.22
2022-10-25T03:29:41.381Z,95522.19
2022-10-25T03:32:09.448Z,95524.66
2022-10-25T03:34:37.427Z,95514.06
2022-10-25T03:37:05.301Z,95528.44
2022-10-25T03:39:33.320Z,95519.38
2022-10-25T03:42:01.158Z,95505.91
2022-10-25T03:44:30.417Z,95527.53
2022-10-25T03:46:58.343Z,95507.41
2022-10-25T03:49:26.768Z,95525.19
2022-10-25T03:51:57.899Z,95517.78
2022-10-25T03:54:29.403Z,95516.50
2022-10-25T03:56:57.459Z,95517.75
2022-10-25T03:59:25.411Z,95517.38
2022-10-25T04:01:55.939Z,95509.47
2022-10-25T04:04:24.019Z,95517.88
2022-10-25T04:06:51.927Z,95514.50
2022-10-25T04:09:20.030Z,95503.28
2022-10-25T04:11:48.076Z,95503.94
2022-10-25T04:14:15.992Z,95509.34
2022-10-25T04:16:44.000Z,95519.09
2022-10-25T04:19:13.298Z,95518.41
2022-10-25T04:21:41.332Z,95465.41
2022-10-25T04:24:09.412Z,95523.59
2022-10-25T04:26:37.784Z,95520.25
2022-10-25T04:29:07.327Z,95520.03
2022-10-25T04:31:35.767Z,95530.19
2022-10-25T04:34:03.687Z,95527.44
2022-10-25T04:36:33.008Z,95516.84
2022-10-25T04:39:01.300Z,95437.56
2022-10-25T04:41:29.146Z,95546.41
2022-10-25T04:43:57.112Z,95536.47
2022-10-25T04:46:25.064Z,95530.41
2022-10-25T04:48:52.913Z,95531.72
2022-10-25T04:51:20.777Z,95547.06
2022-10-25T04:53:50.029Z,95540.44
2022-10-25T04:56:17.904Z,95542.09
2022-10-25T04:58:45.821Z,95548.69
2022-10-25T05:01:17.036Z,95540.56
2022-10-25T05:03:45.023Z,95555.94
2022-10-25T05:06:15.283Z,95537.19
2022-10-25T05:08:45.483Z,95537.31
2022-10-25T05:11:16.060Z,95538.50
2022-10-25T05:13:45.126Z,95544.69
2022-10-25T05:16:17.314Z,95545.22
2022-10-25T05:18:46.825Z,95545.91
2022-10-25T05:21:16.093Z,95527.75
2022-10-25T05:23:44.143Z,95530.78
2022-10-25T05:26:15.221Z,95547.44
2022-10-25T05:28:44.921Z,95533.84
2022-10-25T05:31:15.386Z,95537.31
2022-10-25T05:33:45.369Z,95555.16
2022-10-25T05:36:14.542Z,95573.88
2022-10-25T05:38:42.729Z,95546.63
2022-10-25T05:41:12.359Z,95570.41
2022-10-25T05:43:42.498Z,95505.47
2022-10-25T05:46:12.893Z,95583.19
2022-10-25T05:48:45.793Z,95587.38
2022-10-25T05:51:33.039Z,95585.06
2022-10-25T05:54:03.895Z,95597.47
2022-10-25T05:56:33.315Z,95586.63
2022-10-25T05:59:07.724Z,95605.72
2022-10-25T06:01:36.711Z,95521.00
2022-10-25T06:04:04.935Z,95608.00
2022-10-25T06:06:32.910Z,95602.88
2022-10-25T06:09:02.563Z,95609.97
2022-10-25T06:11:31.256Z,95609.53
2022-10-25T06:13:59.394Z,95601.16
2022-10-25T06:16:28.906Z,95603.31
2022-10-25T06:18:56.878Z,95608.19
2022-10-25T06:21:27.042Z,95610.00
2022-10-25T06:23:56.576Z,95608.00
2022-10-25T06:26:26.992Z,95607.56
2022-10-25T06:28:57.195Z,95605.63
2022-10-25T06:31:25.961Z,95612.09
2022-10-25T06:33:55.266Z,95605.75
2022-10-25T06:36:24.659Z,95609.28
2022-10-25T06:38:53.030Z,95602.72
2022-10-25T06:41:22.490Z,95602.72
2022-10-25T06:43:50.944Z,95561.22
2022-10-25T06:46:22.838Z,95612.94
2022-10-25T06:48:51.801Z,95623.34
2022-10-25T06:51:21.810Z,95598.28
2022-10-25T06:53:54.391Z,95613.81
2022-10-25T06:56:22.303Z,95617.22
2022-10-25T06:58:50.472Z,95598.28
2022-10-25T07:01:21.009Z,95603.59
2022-10-25T07:03:50.728Z,95591.78
2022-10-25T07:06:23.882Z,95592.47
2022-10-25T07:08:54.917Z,95586.16
2022-10-25T07:11:23.708Z,95582.91
2022-10-25T07:13:51.837Z,95591.44
2022-10-25T07:16:21.769Z,95588.59
2022-10-25T07:18:50.286Z,95588.75
2022-10-25T07:21:20.338Z,95581.78
2022-10-25T07:23:50.921Z,95561.84
2022-10-25T07:26:21.097Z,95567.88
2022-10-25T07:28:51.555Z,95567.84
2022-10-25T07:31:22.027Z,95561.13
2022-10-25T07:33:50.241Z,95570.19
2022-10-25T07:36:18.338Z,95567.38
2022-10-25T07:38:49.258Z,95551.69
2022-10-25T07:41:17.259Z,95565.25
2022-10-25T07:43:45.991Z,95567.28
2022-10-25T07:46:14.185Z,95570.50
2022-10-25T07:48:42.346Z,95566.59
2022-10-25T07:51:13.559Z,95568.75
2022-10-25T07:53:41.860Z,95560.63
2022-10-25T07:56:16.216Z,95560.00
2022-10-25T07:58:47.251Z,95556.84
2022-10-25T08:01:20.709Z,95558.13
2022-10-25T08:03:48.766Z,95555.03
2022-10-25T08:06:16.657Z,95544.69
2022-10-25T08:08:44.619Z,95540.34
2022-10-25T08:11:13.935Z,95534.31
2022-10-25T08:13:42.094Z,95542.44
2022-10-25T08:16:10.277Z,95549.03
2022-10-25T08:18:38.160Z,95525.41
2022-10-25T08:21:06.351Z,95550.31
2022-10-25T08:23:34.641Z,95542.00
2022-10-25T08:26:03.598Z,95538.34
2022-10-25T08:28:32.861Z,95532.84
2022-10-25T08:31:01.987Z,95530.16
2022-10-25T08:33:30.590Z,95526.47
2022-10-25T08:36:02.058Z,95525.25
2022-10-25T08:38:30.294Z,95530.84
2022-10-25T08:41:06.889Z,95523.09
2022-10-25T08:44:10.183Z,95524.06
2022-10-25T08:46:42.112Z,95521.19
2022-10-25T08:49:20.866Z,95524.19
2022-10-25T08:51:51.222Z,95513.22
2022-10-25T08:54:27.623Z,95491.97
2022-10-25T08:57:15.496Z,95508.22
2022-10-25T08:59:50.213Z,95507.53
2022-10-25T09:02:25.748Z,95507.75
2022-10-25T09:04:54.654Z,95499.09
2022-10-25T09:07:46.780Z,95494.97
2022-10-25T09:10:26.997Z,95491.69
2022-10-25T09:13:06.951Z,95460.28
2022-10-25T09:15:52.315Z,95493.78
2022-10-25T09:18:23.578Z,95500.78
2022-10-25T09:20:53.275Z,95509.78
2022-10-25T09:23:28.097Z,95498.81
2022-10-25T09:26:04.315Z,95494.84
2022-10-25T09:28:50.735Z,95494.84
2022-10-25T09:31:24.028Z,95502.81
2022-10-25T09:34:03.083Z,95502.81
2022-10-25T09:36:38.230Z,95485.63
2022-10-25T09:39:16.617Z,95487.41
2022-10-25T09:41:47.831Z,95494.41
2022-10-25T09:44:24.910Z,95495.88
2022-10-25T09:46:58.860Z,95477.34
2022-10-25T09:49:34.976Z,95469.56
2022-10-25T09:52:11.443Z,95463.47
2022-10-25T09:54:45.689Z,95456.13
2022-10-25T09:57:13.669Z,95457.00
2022-10-25T09:59:41.726Z,95461.91
2022-10-25T10:02:19.015Z,95461.34
2022-10-25T10:04:47.074Z,95458.50
2022-10-25T10:07:21.589Z,95450.75
2022-10-25T10:09:51.673Z,95453.06
2022-10-25T10:12:24.915Z,95360.72
2022-10-25T10:15:01.257Z,95439.28
2022-10-25T10:17:31.867Z,95447.13
2022-10-25T10:20:18.721Z,95439.81
2022-10-25T10:22:51.793Z,95431.03
2022-10-25T10:25:22.783Z,95430.00
2022-10-25T10:27:53.397Z,95414.53
2022-10-25T10:30:29.163Z,95429.44
2022-10-25T10:33:01.333Z,95425.69
2022-10-25T10:35:32.847Z,95409.16
2022-10-25T10:38:23.428Z,95409.97
2022-10-25T10:40:52.571Z,95409.09
2022-10-25T10:43:29.768Z,95395.72
2022-10-25T10:46:03.873Z,95386.66
2022-10-25T10:48:42.090Z,95391.22
2022-10-25T10:51:25.156Z,95396.84
2022-10-25T10:54:00.094Z,95390.56
2022-10-25T10:56:30.832Z,95391.59
2022-10-25T10:58:59.227Z,95386.19
2022-10-25T11:01:33.677Z,95388.00
2022-10-25T11:04:03.455Z,95382.38
2022-10-25T11:06:33.501Z,95368.13
2022-10-25T11:09:18.006Z,95374.53
2022-10-25T11:11:47.199Z,95372.00
2022-10-25T11:14:16.958Z,95370.03
2022-10-25T11:16:58.933Z,95362.13
2022-10-25T11:20:03.807Z,95379.44
2022-10-25T11:22:49.382Z,95369.31
2022-10-25T11:25:30.592Z,95356.59
2022-10-25T11:28:11.625Z,95359.91
2022-10-25T11:30:47.302Z,95351.09
2022-10-25T11:33:46.470Z,95348.25
2022-10-25T11:36:28.484Z,95351.13
2022-10-25T11:39:22.172Z,95328.78
2022-10-25T11:41:52.773Z,95342.84
2022-10-25T11:45:02.298Z,95339.22
2022-10-25T11:47:43.444Z,95338.16
2022-10-25T11:50:25.308Z,95313.13
2022-10-25T11:53:23.182Z,95322.63
2022-10-25T11:55:56.144Z,95321.47
2022-10-25T11:58:42.362Z,95303.03
2022-10-25T12:01:22.688Z,95315.59
2022-10-25T12:04:09.062Z,95303.22
2022-10-25T12:06:43.263Z,95300.47
2022-10-25T12:09:24.634Z,95291.09
2022-10-25T12:11:59.629Z,95298.53
2022-10-25T12:14:33.380Z,95295.69
2022-10-25T12:17:04.757Z,95291.09
2022-10-25T12:19:42.907Z,95293.41
2022-10-25T12:22:18.662Z,95290.69
2022-10-25T12:24:52.684Z,95293.66
2022-10-25T12:27:23.610Z,95291.53
2022-10-25T12:29:56.933Z,95293.41
2022-10-25T12:32:33.390Z,95289.78
2022-10-25T12:35:03.922Z,95291.06
2022-10-25T12:37:38.600Z,95285.72
2022-10-25T12:40:15.887Z,95287.31
2022-10-25T12:42:47.809Z,95292.09
2022-10-25T12:45:34.871Z,95296.97
2022-10-25T12:48:16.625Z,95295.50
2022-10-25T12:51:05.123Z,95289.31
2022-10-25T12:54:05.506Z,95287.91
2022-10-25T12:56:46.069Z,95303.34
2022-10-25T12:59:35.096Z,95297.81
2022-10-25T13:02:18.954Z,95283.94
2022-10-25T13:05:12.734Z,95301.53
2022-10-25T13:07:40.773Z,95293.63
2022-10-25T13:10:18.186Z,95294.34
2022-10-25T13:13:00.046Z,95291.34
2022-10-25T13:15:39.979Z,95296.09
2022-10-25T13:18:26.088Z,95302.34
2022-10-25T13:20:54.832Z,95296.03
2022-10-25T13:24:02.910Z,95293.91
2022-10-25T13:26:34.177Z,95283.72
2022-10-25T13:29:26.392Z,95280.94
2022-10-25T13:32:10.369Z,95278.47
2022-10-25T13:34:40.553Z,95282.94
2022-10-25T13:37:42.293Z,95288.97
2022-10-25T13:40:25.549Z,95281.72
2022-10-25T13:43:02.952Z,95282.88
2022-10-25T13:45:43.837Z,95284.03
2022-10-25T13:48:27.135Z,95278.78
2022-10-25T13:50:58.013Z,95279.75
2022-10-25T13:53:31.310Z,95283.72
2022-10-25T13:56:04.318Z,95279.16
2022-10-25T13:58:50.513Z,95272.72
2022-10-25T14:01:55.843Z,95278.25
2022-10-25T14:04:40.954Z,95281.19
2022-10-25T14:07:47.645Z,95275.31
2022-10-25T14:10:24.378Z,95271.09
2022-10-25T14:12:55.768Z,95270.63
2022-10-25T14:15:36.617Z,95275.41
2022-10-25T14:18:08.963Z,95277.06
2022-10-25T14:20:40.077Z,95267.06
2022-10-25T14:23:15.301Z,95272.47
2022-10-25T14:25:51.144Z,95278.69
2022-10-25T14:28:23.805Z,95276.25
2022-10-25T14:30:54.520Z,95278.75
2022-10-25T14:33:28.323Z,95265.97
2022-10-25T14:36:08.028Z,95265.56
2022-10-25T14:38:39.897Z,95265.91
2022-10-25T14:41:13.806Z,95257.44
2022-10-25T14:43:43.210Z,95262.91
2022-10-25T14:46:16.232Z,95259.34
2022-10-25T14:48:46.893Z,95266.72
2022-10-25T14:51:22.165Z,95266.63
2022-10-25T14:53:56.852Z,95274.59
2022-10-25T14:56:29.499Z,95254.78
2022-10-25T14:58:58.776Z,95257.78
2022-10-25T15:01:27.398Z,95257.47
2022-10-25T15:03:59.229Z,95262.75
2022-10-25T15:06:32.370Z,95257.06
2022-10-25T15:09:30.129Z,95260.34
2022-10-25T15:12:15.642Z,95263.91
2022-10-25T15:14:43.720Z,95257.94
2022-10-25T15:17:18.911Z,95258.13
2022-10-25T15:20:05.727Z,95268.16
2022-10-25T15:22:43.543Z,95259.63
2022-10-25T15:25:30.335Z,95243.88
2022-10-25T15:28:09.295Z,95257.63
2022-10-25T15:30:40.371Z,95267.84
2022-10-25T15:33:12.176Z,95263.47
2022-10-25T15:35:56.780Z,95223.19
2022-10-25T15:38:41.900Z,95268.50
2022-10-25T15:41:16.368Z,95273.59
2022-10-25T15:43:44.306Z,95268.06
2022-10-25T15:46:24.176Z,95276.78
2022-10-25T15:48:52.077Z,95283.63
2022-10-25T15:51:20.509Z,95286.31
2022-10-25T15:53:49.846Z,95294.41
2022-10-25T15:56:20.942Z,95293.59
2022-10-25T15:58:49.295Z,95296.13
2022-10-25T16:01:17.364Z,95288.91
2022-10-25T16:03:45.460Z,95299.44
2022-10-25T16:06:14.871Z,95300.66
2022-10-25T16:08:43.051Z,95301.78
2022-10-25T16:11:16.763Z,95237.34
2022-10-25T16:13:47.061Z,95293.16
2022-10-25T16:16:38.724Z,95298.88
2022-10-25T16:19:11.109Z,95297.00
2022-10-25T16:21:38.976Z,95302.03
2022-10-25T16:24:07.153Z,95301.75
2022-10-25T16:26:41.020Z,95299.38
2022-10-25T16:29:15.427Z,95299.81
2022-10-25T16:31:43.606Z,95309.97
2022-10-25T16:34:11.886Z,95311.78
2022-10-25T16:36:40.155Z,95310.75
2022-10-25T16:39:08.918Z,95313.13
2022-10-25T16:41:42.105Z,95262.56
2022-10-25T16:44:12.199Z,95318.75
2022-10-25T16:46:40.164Z,95321.84
2022-10-25T16:49:09.516Z,95315.34
2022-10-25T16:51:38.546Z,95324.16
2022-10-25T16:54:07.055Z,95324.75
2022-10-25T16:56:35.686Z,95310.41
2022-10-25T16:59:04.983Z,95316.81
2022-10-25T17:01:35.004Z,95324.97
2022-10-25T17:04:04.003Z,95326.22
2022-10-25T17:06:47.750Z,95336.38
2022-10-25T17:09:16.680Z,95320.69
2022-10-25T17:11:44.830Z,95327.97
2022-10-25T17:14:14.380Z,95319.03
2022-10-25T17:16:44.560Z,95335.84
2022-10-25T17:19:13.168Z,95332.13
2022-10-25T17:21:41.271Z,95329.38
2022-10-25T17:24:09.846Z,95325.13
2022-10-25T17:26:38.289Z,95320.50
2022-10-25T17:29:06.819Z,95334.06
2022-10-25T17:31:36.378Z,95329.44
2022-10-25T17:34:05.395Z,95331.38
2022-10-25T17:36:33.729Z,95325.69
2022-10-25T17:39:02.411Z,95316.50
2022-10-25T17:41:30.337Z,95323.84
2022-10-25T17:43:58.417Z,95338.91
2022-10-25T17:46:29.170Z,95315.09
2022-10-25T17:49:03.451Z,95323.34
2022-10-25T17:51:32.621Z,95325.94
2022-10-25T17:54:02.217Z,95323.81
2022-10-25T17:59:05.758Z,95332.94
2022-10-25T18:01:36.319Z,95337.94
2022-10-25T18:04:05.715Z,95327.63
2022-10-25T18:06:33.828Z,95332.84
2022-10-25T18:09:03.817Z,95337.41
2022-10-25T18:11:32.432Z,95333.97
2022-10-25T18:14:01.863Z,95351.09
2022-10-25T18:16:31.271Z,95342.88
2022-10-25T18:19:01.174Z,95346.22
2022-10-25T18:21:31.981Z,95352.50
2022-10-25T18:24:01.253Z,95361.06
2022-10-25T18:26:29.955Z,95357.59
2022-10-25T18:28:59.258Z,95351.97
2022-10-25T18:31:29.228Z,95356.63
2022-10-25T18:33:59.136Z,95368.13
2022-10-25T18:36:27.818Z,95365.34
2022-10-25T18:38:57.317Z,95372.06
2022-10-25T18:41:27.195Z,95368.53
2022-10-25T18:43:55.907Z,95376.56
2022-10-25T18:46:24.800Z,95383.38
2022-10-25T18:48:53.178Z,95374.06
2022-10-25T18:51:22.787Z,95358.19
2022-10-25T18:53:54.443Z,95377.41
2022-10-25T18:56:24.247Z,95364.34
2022-10-25T18:58:54.029Z,95318.94
2022-10-25T19:01:24.616Z,95384.31
2022-10-25T19:03:53.163Z,95380.06
2022-10-25T19:06:21.229Z,95395.41
2022-10-25T19:08:49.701Z,95376.91
2022-10-25T19:11:18.050Z,95390.69
2022-10-25T19:13:50.426Z,95387.41
2022-10-25T19:16:19.525Z,95393.16
2022-10-25T19:18:47.544Z,95382.69
2022-10-25T19:21:18.447Z,95399.69
2022-10-25T19:23:47.143Z,95401.13
2022-10-25T19:26:19.973Z,95402.44
2022-10-25T19:28:49.341Z,95403.19
2022-10-25T19:31:19.077Z,95398.22
2022-10-25T19:33:48.190Z,95399.47
2022-10-25T19:36:16.779Z,95390.00
2022-10-25T19:38:46.138Z,95405.47
2022-10-25T19:41:16.670Z,95402.44
2022-10-25T19:43:44.884Z,95395.50
2022-10-25T19:46:14.466Z,95409.75
2022-10-25T19:48:43.066Z,95411.72
2022-10-25T19:51:12.999Z,95410.50
2022-10-25T19:53:41.068Z,95403.75
2022-10-25T19:56:10.869Z,95422.47
2022-10-25T19:58:38.782Z,95426.97
2022-10-25T20:01:08.676Z,95428.69
2022-10-25T20:03:39.414Z,95354.78
2022-10-25T20:06:09.555Z,95438.94
2022-10-25T20:08:39.713Z,95445.19
2022-10-25T20:11:08.853Z,95442.69
2022-10-25T20:13:36.782Z,95442.91
2022-10-25T20:16:06.059Z,95441.41
2022-10-25T20:18:35.960Z,95452.19
2022-10-25T20:21:07.501Z,95448.16
2022-10-25T20:23:36.710Z,95448.91
2022-10-25T20:26:12.635Z,95456.63
2022-10-25T20:28:40.585Z,95463.88
2022-10-25T20:31:08.605Z,95451.38
2022-10-25T20:33:36.710Z,95454.84
2022-10-25T20:36:08.831Z,95454.34
2022-10-25T20:38:38.131Z,95451.63
2022-10-25T20:41:07.774Z,95466.09
2022-10-25T20:43:36.002Z,95457.34
2022-10-25T20:46:04.507Z,95463.34
2022-10-25T20:48:32.905Z,95465.03
2022-10-25T20:51:04.117Z,95461.06
2022-10-25T20:53:36.971Z,95476.28
2022-10-25T20:56:05.282Z,95478.25
2022-10-25T20:58:34.767Z,95465.50
2022-10-25T21:01:03.407Z,95445.81
2022-10-25T21:03:32.985Z,95459.81
2022-10-25T21:06:03.504Z,95461.81
2022-10-25T21:08:32.128Z,95459.56
2022-10-25T21:11:02.666Z,95461.78
2022-10-25T21:13:37.389Z,95467.28
2022-10-25T21:16:09.341Z,95473.75
2022-10-25T21:18:37.738Z,95469.03
2022-10-25T21:21:07.858Z,95435.97
2022-10-25T21:23:36.411Z,95474.47
2022-10-25T21:26:07.759Z,95472.47
2022-10-25T21:28:37.714Z,95482.63
2022-10-25T21:31:07.276Z,95475.59
2022-10-25T21:33:35.692Z,95477.59
2022-10-25T21:36:04.871Z,95489.03
2022-10-25T21:38:32.801Z,95476.78
2022-10-25T21:41:11.231Z,95488.78
2022-10-25T21:43:43.863Z,95482.56
2022-10-25T21:46:12.360Z,95490.84
2022-10-25T21:48:40.439Z,95482.78
2022-10-25T21:51:08.744Z,95485.00
2022-10-25T21:53:36.706Z,95488.06
2022-10-25T21:56:06.506Z,95481.72
2022-10-25T21:58:35.779Z,95465.03
2022-10-25T22:01:03.929Z,95480.19
2022-10-25T22:03:32.133Z,95463.22
2022-10-25T22:06:00.121Z,95478.22
2022-10-25T22:08:28.072Z,95474.63
2022-10-25T22:10:57.543Z,95482.06
2022-10-25T22:13:25.590Z,95477.09
2022-10-25T22:16:03.160Z,95483.03
2022-10-25T22:18:31.616Z,95481.28
2022-10-25T22:21:01.251Z,95489.44
2022-10-25T22:23:31.188Z,95492.44
2022-10-25T22:26:01.514Z,95482.75
2022-10-25T22:28:29.640Z,95491.44
2022-10-25T22:31:03.382Z,95445.75
2022-10-25T22:33:31.756Z,95484.53
2022-10-25T22:38:32.810Z,95475.94
2022-10-25T22:41:01.997Z,95475.97
2022-10-25T22:43:30.111Z,95488.19
2022-10-25T22:45:58.101Z,95475.72
2022-10-25T22:48:31.436Z,95488.78
2022-10-25T22:50:59.745Z,95489.38
2022-10-25T22:53:27.872Z,95487.34
2022-10-25T22:55:57.518Z,95489.97
2022-10-25T22:58:26.821Z,95491.44
2022-10-25T23:03:39.048Z,95443.50
2022-10-25T23:06:09.457Z,95494.25
2022-10-25T23:08:37.419Z,95483.97
2022-10-25T23:11:07.178Z,95487.66
2022-10-25T23:13:37.141Z,95494.50
2022-10-25T23:16:05.463Z,95502.47
2022-10-25T23:18:33.976Z,95499.09
2022-10-25T23:21:04.313Z,95497.88
2022-10-25T23:23:36.096Z,95494.78
2022-10-25T23:26:04.045Z,95504.13
2022-10-25T23:28:32.695Z,95505.63
2022-10-25T23:31:05.468Z,95510.09
2022-10-25T23:33:33.527Z,95521.56
2022-10-25T23:36:08.941Z,95513.69
2022-10-25T23:38:37.526Z,95518.91
2022-10-25T23:41:06.007Z,95516.06
2022-10-25T23:43:34.196Z,95513.22
2022-10-25T23:46:02.543Z,95518.09
2022-10-25T23:48:30.961Z,95523.41
2022-10-25T23:53:31.326Z,95522.66
2022-10-25T23:55:59.661Z,95526.84
2022-10-25T23:58:27.643Z,95526.72
